Time;durP1;ratioP1;P1;durP2;ratioP2;P2;SDS_P1;SDS_P2;PMS_P1;PMS_P2;Temp;Humidity;BMP_temperature;BMP_pressure;BME280_temperature;BME280_humidity;BME280_pressure;Samples;Min_cycle;Max_cycle;Signal;HPM_P1;HPM_P2
2023/10/08 00:01:16;;;;;;;2.55;1.90;;;;;;;23.44;49.90;102355.69;5053870;28;20052;-71
2023/10/08 00:03:50;;;;;;;2.08;1.80;;;;;;;23.44;49.70;102342.41;5051435;28;20597;-71
2023/10/08 00:06:19;;;;;;;2.20;1.55;;;;;;;23.38;49.90;102343.91;5053269;28;20071;-71
2023/10/08 00:08:45;;;;;;;2.85;2.13;;;;;;;23.40;49.63;102328.63;5055048;28;20440;-71
2023/10/08 00:11:11;;;;;;;2.65;1.90;;;;;;;23.40;49.94;102320.63;5055481;28;20048;-72
2023/10/08 00:13:40;;;;;;;2.35;1.77;;;;;;;23.36;49.68;102329.97;5055885;28;20044;-71
2023/10/08 00:16:10;;;;;;;3.03;2.03;;;;;;;23.42;49.90;102347.06;5051314;28;20036;-71
2023/10/08 00:18:48;;;;;;;3.13;2.15;;;;;;;23.35;49.82;102335.44;5059823;28;20459;-71
2023/10/08 00:23:42;;;;;;;2.70;2.00;;;;;;;23.40;49.74;102349.88;5055511;28;20052;-71
2023/10/08 00:26:10;;;;;;;2.08;1.85;;;;;;;23.40;49.89;102352.53;5058414;28;20151;-72
2023/10/08 00:28:36;;;;;;;2.05;1.85;;;;;;;23.36;49.71;102359.19;5058094;28;20040;-71
2023/10/08 00:31:12;;;;;;;2.45;2.00;;;;;;;23.40;49.69;102354.38;5041022;28;20048;-72
2023/10/08 00:33:44;;;;;;;1.50;1.40;;;;;;;23.40;49.64;102343.75;5053753;28;20052;-72
2023/10/08 00:36:20;;;;;;;1.52;1.42;;;;;;;23.37;50.00;102331.63;5060961;28;20055;-71
2023/10/08 00:38:59;;;;;;;2.17;1.70;;;;;;;23.40;49.85;102327.78;5039079;28;20395;-72
2023/10/08 00:41:30;;;;;;;1.60;1.48;;;;;;;23.38;49.66;102346.56;5053212;28;20589;-71
2023/10/08 00:43:59;;;;;;;2.00;1.42;;;;;;;23.38;49.85;102365.16;5055037;28;20049;-71
2023/10/08 00:46:32;;;;;;;3.85;1.58;;;;;;;23.37;49.80;102381.28;5053579;28;20725;-72
2023/10/08 00:49:18;;;;;;;1.70;1.60;;;;;;;23.37;49.85;102352.88;5054091;28;20056;-71
2023/10/08 00:51:45;;;;;;;2.33;1.70;;;;;;;23.38;49.86;102346.56;5053666;28;20141;-72
2023/10/08 00:54:17;;;;;;;1.70;1.60;;;;;;;23.37;49.93;102339.59;5056897;28;20148;-72
2023/10/08 00:59:16;;;;;;;1.60;1.50;;;;;;;23.35;49.68;102324.81;5051767;28;20796;-72
2023/10/08 01:01:51;;;;;;;1.42;1.30;;;;;;;23.36;49.81;102340.59;5051911;28;20103;-72
2023/10/08 01:04:26;;;;;;;1.98;1.50;;;;;;;23.35;49.79;102354.88;5042399;28;20096;-71
2023/10/08 01:07:01;;;;;;;1.90;1.33;;;;;;;23.36;49.70;102351.22;5041689;28;20553;-71
2023/10/08 01:09:34;;;;;;;1.98;1.52;;;;;;;23.35;49.76;102346.91;5040609;28;20057;-71
2023/10/08 01:12:20;;;;;;;2.67;1.60;;;;;;;23.37;49.49;102354.72;5051441;28;20160;-71
2023/10/08 01:14:48;;;;;;;1.27;1.17;;;;;;;23.36;49.57;102364.50;5050920;28;20114;-71
2023/10/08 01:17:15;;;;;;;1.60;1.15;;;;;;;23.34;49.55;102386.91;5054104;28;20197;-72
2023/10/08 01:19:53;;;;;;;1.98;1.38;;;;;;;23.35;49.56;102396.59;5050445;28;20560;-72
2023/10/08 01:22:21;;;;;;;3.45;1.60;;;;;;;23.35;49.67;102362.84;5053239;28;20053;-72
2023/10/08 01:24:48;;;;;;;1.27;1.10;;;;;;;23.35;49.68;102364.69;5051288;28;20126;-72
2023/10/08 01:27:21;;;;;;;2.08;1.63;;;;;;;23.33;49.58;102364.00;5053425;28;20119;-71
2023/10/08 01:29:51;;;;;;;2.53;1.30;;;;;;;23.34;49.72;102381.59;5053135;28;20138;-71
2023/10/08 01:32:22;;;;;;;1.15;1.10;;;;;;;23.35;49.45;102399.25;5038203;28;20108;-71
2023/10/08 01:34:48;;;;;;;2.00;1.35;;;;;;;23.32;49.69;102378.28;5039379;28;20550;-71
2023/10/08 01:37:17;;;;;;;1.25;1.15;;;;;;;23.31;49.45;102355.34;5050831;28;20060;-71
2023/10/08 01:39:46;;;;;;;2.05;1.63;;;;;;;23.32;49.56;102338.41;5036133;28;20048;-72
2023/10/08 01:42:17;;;;;;;1.40;1.23;;;;;;;23.30;49.50;102356.34;5037677;28;20094;-72
2023/10/08 01:44:48;;;;;;;1.67;1.58;;;;;;;23.29;49.80;102375.97;5043490;28;20052;-72
2023/10/08 01:47:17;;;;;;;1.73;1.48;;;;;;;23.32;49.85;102394.22;5055242;28;20067;-72
2023/10/08 01:49:46;;;;;;;3.22;2.92;;;;;;;23.28;49.61;102400.88;5044766;28;20064;-72
2023/10/08 01:52:21;;;;;;;2.83;1.70;;;;;;;23.31;49.69;102397.88;5048840;28;20052;-72
2023/10/08 01:54:48;;;;;;;1.48;1.00;;;;;;;23.30;49.72;102404.19;5045621;28;20120;-72
2023/10/08 01:57:14;;;;;;;0.77;0.65;;;;;;;23.29;49.39;102403.38;5053086;28;20485;-71
2023/10/08 01:59:40;;;;;;;1.10;1.00;;;;;;;23.28;49.84;102407.03;5051165;28;20084;-71
2023/10/08 02:02:06;;;;;;;2.60;1.00;;;;;;;23.30;49.64;102404.19;5054399;28;20041;-72
2023/10/08 02:04:35;;;;;;;1.80;1.02;;;;;;;23.23;49.61;102393.41;5053486;28;20056;-72
2023/10/08 02:07:04;;;;;;;1.80;1.25;;;;;;;23.28;49.84;102420.31;5039304;28;20710;-72
2023/10/08 02:09:30;;;;;;;1.08;0.98;;;;;;;23.28;49.64;102411.50;5050606;28;20044;-72
2023/10/08 02:11:56;;;;;;;1.52;1.08;;;;;;;23.27;49.58;102408.03;5054725;28;20066;-72
2023/10/08 02:14:22;;;;;;;2.22;0.93;;;;;;;23.28;49.56;102398.22;5055373;28;20773;-71
2023/10/08 02:16:52;;;;;;;0.88;0.82;;;;;;;23.28;49.59;102400.88;5050153;28;20166;-71
2023/10/08 02:19:18;;;;;;;1.35;1.17;;;;;;;23.28;49.76;102403.53;5055403;28;20083;-70
2023/10/08 02:21:46;;;;;;;1.00;0.90;;;;;;;23.27;49.38;102407.19;5050047;28;20049;-71
2023/10/08 02:24:12;;;;;;;0.80;0.80;;;;;;;23.25;49.61;102407.34;5054689;28;20131;-72
2023/10/08 02:26:38;;;;;;;1.10;1.00;;;;;;;23.26;49.62;102422.31;5053745;28;20048;-72
2023/10/08 02:29:10;;;;;;;1.42;1.02;;;;;;;23.27;49.43;102431.94;5049563;28;20152;-71
2023/10/08 02:31:43;;;;;;;1.45;1.13;;;;;;;23.25;49.61;102431.28;5047692;28;20040;-71
2023/10/08 02:34:09;;;;;;;0.85;0.70;;;;;;;23.24;49.51;102432.28;5051482;28;20321;-71
2023/10/08 02:36:42;;;;;;;1.33;1.15;;;;;;;23.26;49.63;102421.47;5053064;28;20040;-72
2023/10/08 02:39:16;;;;;;;1.30;0.80;;;;;;;23.24;49.82;102423.47;5053130;28;20036;-72
2023/10/08 02:41:45;;;;;;;1.85;0.88;;;;;;;23.25;49.61;102430.44;5054496;28;20060;-72
2023/10/08 02:44:14;;;;;;;1.80;0.90;;;;;;;23.25;49.80;102441.06;5054048;28;20057;-72
2023/10/08 02:46:42;;;;;;;1.10;1.00;;;;;;;23.24;49.36;102437.59;5051722;28;20817;-72
2023/10/08 02:49:11;;;;;;;1.40;1.00;;;;;;;23.26;49.48;102437.41;5051326;28;20056;-72
2023/10/08 02:51:40;;;;;;;1.13;1.05;;;;;;;23.24;49.66;102442.91;5048246;28;20079;-72
2023/10/08 02:54:08;;;;;;;0.90;0.77;;;;;;;23.20;49.61;102438.91;5049503;28;20076;-71
2023/10/08 02:56:34;;;;;;;0.60;0.60;;;;;;;23.18;49.64;102441.75;5031035;28;20037;-72
2023/10/08 02:59:00;;;;;;;1.25;1.13;;;;;;;23.23;49.57;102443.06;5050804;28;20544;-72
2023/10/08 03:01:27;;;;;;;1.48;1.17;;;;;;;23.22;49.47;102447.56;5033449;28;20517;-71
2023/10/08 03:04:03;;;;;;;0.73;0.73;;;;;;;23.21;49.61;102448.56;5034693;28;20052;-72
2023/10/08 03:06:31;;;;;;;0.70;0.70;;;;;;;23.24;49.68;102458.00;5038652;28;20565;-72
2023/10/08 03:09:04;;;;;;;0.65;0.65;;;;;;;23.22;49.59;102452.88;5035117;28;20499;-72
2023/10/08 03:11:31;;;;;;;1.25;0.80;;;;;;;23.21;49.52;102457.34;5054239;28;20044;-70
2023/10/08 03:13:58;;;;;;;2.45;0.80;;;;;;;23.20;49.47;102445.06;5028055;28;20090;-71
2023/10/08 03:16:28;;;;;;;0.82;0.70;;;;;;;23.13;49.74;102444.03;5055273;28;20489;-70
2023/10/08 03:18:57;;;;;;;0.70;0.60;;;;;;;23.19;49.48;102458.50;5034502;28;20067;-71
2023/10/08 03:24:12;;;;;;;0.82;0.63;;;;;;;23.15;49.57;102452.66;5045663;28;20126;-71
2023/10/08 03:26:39;;;;;;;1.73;0.70;;;;;;;23.15;49.66;102433.22;5039956;28;20167;-71
2023/10/08 03:29:14;;;;;;;1.40;0.63;;;;;;;23.18;49.62;102439.09;5037627;28;20074;-71
2023/10/08 03:34:27;;;;;;;0.80;0.75;;;;;;;23.20;49.64;102449.53;5028065;28;20053;-71
2023/10/08 03:36:59;;;;;;;1.45;0.63;;;;;;;23.17;49.59;102445.41;5042170;28;20103;-71
2023/10/08 03:39:50;;;;;;;0.80;0.80;;;;;;;23.15;49.75;102450.00;5053033;28;20044;-71
2023/10/08 03:42:13;;;;;;;2.08;0.88;;;;;;;23.18;49.33;102463.00;5045040;28;20049;-71
2023/10/08 03:44:42;;;;;;;0.75;0.60;;;;;;;23.18;49.57;102465.66;5052018;28;20055;-72
2023/10/08 03:47:10;;;;;;;1.38;1.08;;;;;;;23.17;49.55;102471.13;5029166;28;20052;-73
2023/10/08 03:49:44;;;;;;;1.38;1.27;;;;;;;23.15;49.58;102486.38;5057627;28;20055;-72
2023/10/08 03:52:10;;;;;;;0.95;0.70;;;;;;;23.16;49.65;102504.84;5060165;28;20041;-72
2023/10/08 03:54:42;;;;;;;1.05;0.98;;;;;;;23.16;49.54;102511.97;5051993;28;20049;-71
2023/10/08 03:57:14;;;;;;;0.95;0.80;;;;;;;23.14;49.75;102504.16;5052912;28;20126;-72
2023/10/08 03:59:41;;;;;;;1.73;0.85;;;;;;;23.12;49.45;102503.50;5056139;28;20053;-71
2023/10/08 04:04:51;;;;;;;0.55;0.55;;;;;;;23.16;49.56;102538.53;5055607;28;20090;-71
2023/10/08 04:12:34;;;;;;;0.50;0.45;;;;;;;23.10;49.68;102537.38;5058960;28;20075;-71
2023/10/08 04:15:07;;;;;;;1.30;0.80;;;;;;;23.14;49.43;102549.34;5054653;28;20760;-71
2023/10/08 04:17:43;;;;;;;1.08;0.80;;;;;;;23.08;49.70;102541.19;5057666;28;20079;-71
2023/10/08 04:20:32;;;;;;;0.75;0.70;;;;;;;23.12;49.50;102546.00;5055468;28;20044;-72
2023/10/08 04:22:59;;;;;;;1.08;0.80;;;;;;;23.12;49.35;102569.09;5058454;28;20138;-71
2023/10/08 04:25:29;;;;;;;1.00;0.85;;;;;;;23.11;49.78;102562.09;5039129;28;20707;-72
2023/10/08 04:27:58;;;;;;;1.55;1.05;;;;;;;23.09;49.57;102549.00;5038937;28;20064;-72
2023/10/08 04:30:32;;;;;;;0.70;0.70;;;;;;;23.12;49.70;102543.34;5058953;28;20043;-71
2023/10/08 04:33:11;;;;;;;1.02;0.93;;;;;;;22.99;49.48;102518.25;5050345;28;21012;-72
2023/10/08 04:36:01;;;;;;;0.77;0.77;;;;;;;23.12;49.40;102542.50;5050207;28;20054;-71
2023/10/08 04:38:28;;;;;;;1.42;0.68;;;;;;;23.11;49.32;102541.69;5055201;28;20052;-71
2023/10/08 04:40:55;;;;;;;0.90;0.75;;;;;;;23.10;49.64;102545.34;5053508;28;20495;-71
2023/10/08 04:43:27;;;;;;;0.32;0.32;;;;;;;23.11;49.77;102564.75;5050328;28;20076;-72
2023/10/08 04:46:04;;;;;;;0.68;0.68;;;;;;;23.10;49.52;102571.06;5056753;28;20839;-72
2023/10/08 04:48:32;;;;;;;0.73;0.60;;;;;;;23.10;49.36;102574.56;5053102;28;20078;-72
2023/10/08 04:50:59;;;;;;;0.93;0.70;;;;;;;23.09;49.74;102580.03;5043823;28;20057;-71
2023/10/08 04:53:36;;;;;;;0.93;0.70;;;;;;;23.09;49.42;102580.03;5032782;28;20052;-72
2023/10/08 04:56:06;;;;;;;0.60;0.60;;;;;;;23.08;49.32;102581.88;5037902;28;20045;-71
2023/10/08 04:58:35;;;;;;;0.77;0.77;;;;;;;23.04;49.71;102577.88;5046735;28;20049;-72
2023/10/08 05:01:17;;;;;;;1.13;0.90;;;;;;;22.94;49.41;102555.06;5022721;28;20045;-71
2023/10/08 05:11:46;;;;;;;0.70;0.70;;;;;;;22.95;49.34;102544.28;5042091;28;20087;-72
2023/10/08 05:14:28;;;;;;;1.20;0.73;;;;;;;23.05;49.71;102545.00;5044599;28;20041;-71
2023/10/08 05:17:43;;;;;;;1.45;0.82;;;;;;;23.04;49.59;102540.66;5046024;28;20101;-72
2023/10/08 05:25:07;;;;;;;0.57;0.40;;;;;;;23.05;49.63;102550.31;5037237;28;20780;-71
2023/10/08 05:30:53;;;;;;;1.20;1.08;;;;;;;23.00;49.46;102538.50;5039047;28;20628;-70
2023/10/08 05:33:25;;;;;;;0.85;0.73;;;;;;;23.04;49.37;102550.47;5032759;28;20420;-71
2023/10/08 05:36:09;;;;;;;1.42;0.75;;;;;;;23.04;49.57;102545.16;5030834;28;20107;-72
2023/10/08 05:46:46;;;;;;;1.02;0.85;;;;;;;23.04;49.46;102569.06;5011567;28;20036;-72
2023/10/08 06:18:15;;;;;;;1.05;0.50;;;;;;;23.02;49.42;102593.13;5037087;28;20064;-71
2023/10/08 06:20:43;;;;;;;1.58;0.70;;;;;;;23.01;49.24;102586.16;5045672;28;20189;-71
2023/10/08 06:23:15;;;;;;;1.10;0.73;;;;;;;23.02;49.67;102589.66;5047338;28;20052;-72
2023/10/08 06:25:44;;;;;;;1.40;0.70;;;;;;;23.00;49.40;102597.78;5049823;28;20065;-71
2023/10/08 06:28:19;;;;;;;0.60;0.30;;;;;;;23.01;49.47;102603.94;5037246;28;20132;-70
2023/10/08 06:30:49;;;;;;;1.60;0.57;;;;;;;23.01;49.29;102612.72;5049474;28;20083;-72
2023/10/08 06:33:16;;;;;;;0.43;0.43;;;;;;;22.84;49.29;102593.22;5039473;28;20127;-71
2023/10/08 06:35:56;;;;;;;0.50;0.38;;;;;;;23.03;49.60;102625.84;5046042;28;20498;-72
2023/10/08 06:38:24;;;;;;;0.50;0.50;;;;;;;23.03;49.41;102650.59;5055782;28;20044;-71
2023/10/08 06:40:52;;;;;;;0.38;0.22;;;;;;;23.03;49.56;102649.78;5056281;28;20679;-71
2023/10/08 06:43:24;;;;;;;0.50;0.50;;;;;;;23.00;49.46;102650.09;5041653;28;20142;-71
2023/10/08 06:45:53;;;;;;;1.27;0.73;;;;;;;22.97;49.55;102635.28;5058708;28;20053;-71
2023/10/08 06:48:25;;;;;;;0.75;0.60;;;;;;;22.92;49.30;102618.97;5058421;28;21126;-72
2023/10/08 06:50:56;;;;;;;0.40;0.40;;;;;;;23.00;49.29;102634.16;5054724;28;20620;-72
2023/10/08 06:53:22;;;;;;;1.23;0.50;;;;;;;23.00;49.52;102637.63;5052787;28;20064;-72
2023/10/08 06:55:54;;;;;;;1.63;0.50;;;;;;;22.95;49.46;102623.13;5055919;28;20553;-71
2023/10/08 06:58:20;;;;;;;0.70;0.70;;;;;;;23.01;49.52;102619.88;5055557;28;20048;-72
2023/10/08 07:00:48;;;;;;;0.45;0.40;;;;;;;23.00;49.17;102624.34;5034314;28;20047;-71
2023/10/08 07:03:15;;;;;;;0.90;0.75;;;;;;;23.00;49.22;102631.50;5058853;28;20049;-71
2023/10/08 07:05:54;;;;;;;0.70;0.60;;;;;;;23.01;49.52;102626.00;5038427;28;20445;-72
2023/10/08 07:08:23;;;;;;;0.57;0.38;;;;;;;22.92;49.64;102614.50;5054775;28;20087;-68
2023/10/08 07:10:50;;;;;;;1.70;0.85;;;;;;;22.87;49.88;102618.63;5058268;28;20048;-70
2023/10/08 07:13:17;;;;;;;0.60;0.60;;;;;;;22.85;50.00;102634.72;5041574;28;20049;-69
2023/10/08 07:15:45;;;;;;;1.02;0.73;;;;;;;22.97;49.59;102643.25;5055509;28;20054;-70
2023/10/08 07:18:19;;;;;;;1.27;0.55;;;;;;;22.99;49.50;102646.59;5055625;28;20044;-71
2023/10/08 07:20:45;;;;;;;1.45;0.60;;;;;;;22.97;49.46;102642.41;5053576;28;20045;-71
2023/10/08 07:23:33;;;;;;;0.50;0.50;;;;;;;23.06;49.42;102658.25;5055343;28;20075;-71
2023/10/08 07:26:10;;;;;;;1.98;0.90;;;;;;;23.12;49.15;102694.81;5051477;28;20117;-69
2023/10/08 07:28:40;;;;;;;1.02;0.70;;;;;;;23.13;49.20;102698.31;5056028;28;20045;-70
2023/10/08 07:31:22;;;;;;;0.60;0.60;;;;;;;23.13;49.27;102695.66;5057431;28;21004;-70
2023/10/08 07:33:56;;;;;;;0.80;0.52;;;;;;;23.12;49.39;102701.97;5057907;28;20318;-71
2023/10/08 07:36:30;;;;;;;1.13;0.60;;;;;;;23.12;49.20;102710.75;5052188;28;20154;-71
2023/10/08 07:38:56;;;;;;;0.40;0.40;;;;;;;23.07;49.16;102699.78;5055608;28;20049;-70
2023/10/08 07:41:22;;;;;;;2.38;0.80;;;;;;;23.11;49.11;102694.97;5059331;28;20087;-70
2023/10/08 07:43:55;;;;;;;1.27;0.55;;;;;;;23.12;49.06;102678.03;5052625;28;20068;-70
2023/10/08 07:46:28;;;;;;;0.93;0.85;;;;;;;23.11;49.25;102676.38;5056107;28;20489;-70
2023/10/08 07:48:54;;;;;;;1.00;0.55;;;;;;;23.10;49.11;102714.56;5059115;28;20394;-70
2023/10/08 07:51:23;;;;;;;0.50;0.50;;;;;;;23.17;49.07;102742.22;5057204;28;20045;-70
2023/10/08 07:53:58;;;;;;;0.80;0.47;;;;;;;23.17;49.16;102721.78;5056349;28;20055;-70
2023/10/08 07:56:25;;;;;;;1.20;0.80;;;;;;;23.19;49.16;102713.66;5061079;28;20045;-70
2023/10/08 07:58:52;;;;;;;0.80;0.60;;;;;;;23.20;49.08;102683.41;5056322;28;20051;-71
2023/10/08 08:01:20;;;;;;;1.13;0.60;;;;;;;23.20;49.18;102640.91;5055942;28;20052;-69
2023/10/08 08:03:48;;;;;;;0.95;0.73;;;;;;;23.21;48.89;102626.63;5050571;28;20048;-69
2023/10/08 08:06:15;;;;;;;0.70;0.70;;;;;;;23.22;48.81;102636.25;5058771;28;20400;-69
2023/10/08 08:08:41;;;;;;;1.42;0.80;;;;;;;23.23;49.12;102621.97;5056881;28;20059;-70
2023/10/08 08:11:17;;;;;;;1.08;0.73;;;;;;;23.22;48.71;102628.28;5057905;28;20097;-68
2023/10/08 08:13:43;;;;;;;0.80;0.80;;;;;;;23.25;48.71;102609.34;5056104;28;20080;-68
2023/10/08 08:16:19;;;;;;;0.98;0.70;;;;;;;23.25;48.70;102606.69;5057857;28;20454;-68
2023/10/08 08:18:55;;;;;;;0.60;0.60;;;;;;;23.28;48.76;102632.94;5054511;28;20703;-69
2023/10/08 08:21:23;;;;;;;0.63;0.63;;;;;;;23.28;48.66;102638.25;5054830;28;20059;-69
2023/10/08 08:23:49;;;;;;;0.77;0.77;;;;;;;23.28;48.91;102637.44;5052623;28;20623;-69
2023/10/08 08:26:39;;;;;;;1.38;0.75;;;;;;;23.26;48.95;102664.19;5055868;28;20052;-70
2023/10/08 08:29:08;;;;;;;;;;;;;;;23.29;49.06;102734.78;5040207;28;20063;-69
2023/10/08 08:31:35;;;;;;;0.98;0.77;;;;;;;23.30;48.77;102747.91;5055299;28;20359;-69
2023/10/08 08:34:08;;;;;;;1.20;1.02;;;;;;;23.32;48.97;102747.75;5054609;28;20659;-70
2023/10/08 08:36:34;;;;;;;0.75;0.70;;;;;;;23.34;48.32;102775.03;5040188;28;20059;-69
2023/10/08 08:39:00;;;;;;;1.33;0.88;;;;;;;23.34;48.83;102780.34;5051114;28;20048;-69
2023/10/08 08:41:25;;;;;;;0.50;0.50;;;;;;;23.36;48.67;102795.16;5056904;28;20091;-70
2023/10/08 08:43:58;;;;;;;0.50;0.47;;;;;;;23.35;48.64;102798.81;5055608;28;20048;-69
2023/10/08 08:46:37;;;;;;;1.60;0.60;;;;;;;23.36;48.49;102810.28;5055939;28;20507;-69
2023/10/08 08:49:07;;;;;;;0.95;0.75;;;;;;;23.36;48.77;102811.13;5053023;28;20068;-69
2023/10/08 08:51:35;;;;;;;0.35;0.35;;;;;;;23.37;48.58;102788.84;5056574;28;20068;-69
2023/10/08 08:54:06;;;;;;;0.60;0.50;;;;;;;23.38;48.58;102787.03;5055689;28;20076;-69
2023/10/08 08:56:36;;;;;;;1.42;0.73;;;;;;;23.38;48.39;102761.28;5056204;28;20040;-69
2023/10/08 08:59:04;;;;;;;0.82;0.60;;;;;;;23.40;48.57;102761.13;5051400;28;20106;-69
2023/10/08 09:01:31;;;;;;;0.40;0.40;;;;;;;23.40;48.57;102779.72;5054681;28;20053;-69
2023/10/08 09:04:06;;;;;;;0.38;0.38;;;;;;;23.39;48.54;102776.25;5052389;28;20036;-69
2023/10/08 09:06:34;;;;;;;0.35;0.30;;;;;;;23.40;48.51;102788.53;5056054;28;20055;-69
2023/10/08 09:09:22;;;;;;;0.50;0.32;;;;;;;23.41;48.38;102784.06;5054365;28;20052;-69
2023/10/08 09:11:52;;;;;;;2.15;0.55;;;;;;;23.40;48.41;102777.91;5055166;28;20045;-70
2023/10/08 09:14:22;;;;;;;1.33;1.02;;;;;;;23.39;48.76;102764.78;5053606;28;20052;-69
2023/10/08 09:16:49;;;;;;;1.27;0.63;;;;;;;23.41;48.60;102768.94;5050604;28;20061;-69
2023/10/08 09:19:18;;;;;;;1.13;0.90;;;;;;;23.40;48.42;102764.63;5042137;28;20067;-69
2023/10/08 09:22:03;;;;;;;1.73;0.60;;;;;;;23.44;48.54;102757.97;5056233;28;20067;-69
2023/10/08 09:24:42;;;;;;;1.10;0.80;;;;;;;23.43;48.40;102739.53;5051501;28;20098;-69
2023/10/08 09:27:14;;;;;;;0.75;0.60;;;;;;;23.45;48.42;102746.34;5054770;28;20151;-69
2023/10/08 09:29:42;;;;;;;1.17;0.60;;;;;;;23.33;48.62;102731.66;5056047;28;20060;-69
2023/10/08 09:32:11;;;;;;;2.28;0.90;;;;;;;23.47;48.41;102770.13;5055228;28;20931;-69
2023/10/08 09:34:36;;;;;;;0.90;0.70;;;;;;;23.50;48.30;102769.81;5054652;28;20166;-69
2023/10/08 09:37:03;;;;;;;0.95;0.70;;;;;;;23.49;48.39;102757.50;5051350;28;20053;-69
2023/10/08 09:39:33;;;;;;;2.15;0.82;;;;;;;23.48;48.24;102751.34;5056712;28;20051;-70
2023/10/08 09:42:06;;;;;;;1.05;0.68;;;;;;;23.49;48.38;102742.38;5050012;28;21203;-70
2023/10/08 09:44:32;;;;;;;1.05;0.52;;;;;;;23.48;48.13;102743.38;5053907;28;20048;-70
2023/10/08 09:47:06;;;;;;;1.95;0.95;;;;;;;23.49;48.36;102762.81;5037999;28;20801;-70
2023/10/08 09:49:47;;;;;;;1.38;0.80;;;;;;;23.50;48.30;102760.00;5051586;28;20482;-70
2023/10/08 09:52:16;;;;;;;0.52;0.45;;;;;;;23.48;48.35;102759.31;5054889;28;20036;-70
2023/10/08 09:54:53;;;;;;;1.38;0.82;;;;;;;23.45;48.11;102754.34;5053475;28;20056;-69
2023/10/08 09:57:21;;;;;;;1.58;0.40;;;;;;;23.46;48.22;102755.16;5031794;28;20069;-70
2023/10/08 09:59:48;;;;;;;0.43;0.30;;;;;;;23.51;48.28;102774.13;5054387;28;20666;-70
2023/10/08 10:02:16;;;;;;;0.63;0.57;;;;;;;23.50;48.01;102770.63;5058714;28;20501;-69
2023/10/08 10:04:45;;;;;;;0.90;0.65;;;;;;;23.48;48.14;102767.31;5052787;28;20517;-69
2023/10/08 10:07:16;;;;;;;0.30;0.30;;;;;;;23.50;48.05;102764.50;5052257;28;20056;-69
2023/10/08 10:09:53;;;;;;;2.33;0.98;;;;;;;23.55;48.16;102769.34;5052530;28;20052;-69
2023/10/08 10:12:30;;;;;;;0.65;0.55;;;;;;;23.51;47.89;102767.00;5051971;28;20044;-69
2023/10/08 10:14:56;;;;;;;0.77;0.70;;;;;;;23.54;48.10;102763.22;5052603;28;20083;-69
2023/10/08 10:17:25;;;;;;;0.43;0.43;;;;;;;23.55;48.20;102767.53;5052792;28;20479;-70
2023/10/08 10:19:55;;;;;;;0.50;0.50;;;;;;;23.53;48.07;102772.19;5049447;28;20509;-70
2023/10/08 10:22:30;;;;;;;;;;;;;;;23.58;48.10;102780.53;5051705;28;20477;-70
2023/10/08 10:24:57;;;;;;;1.13;0.68;;;;;;;23.56;48.05;102774.50;5059946;28;19968;-70
2023/10/08 10:27:23;;;;;;;1.17;0.60;;;;;;;23.56;47.84;102779.84;5047174;28;20053;-69
2023/10/08 10:29:49;;;;;;;0.90;0.50;;;;;;;23.58;47.96;102793.84;5051008;28;20055;-69
2023/10/08 10:32:16;;;;;;;1.13;0.70;;;;;;;23.58;48.10;102800.97;5049745;28;20037;-70
2023/10/08 10:34:43;;;;;;;1.73;0.70;;;;;;;23.56;47.84;102790.47;5050870;28;20061;-69
2023/10/08 10:37:10;;;;;;;0.88;0.70;;;;;;;23.59;47.88;102776.88;5052595;28;20745;-69
2023/10/08 10:39:39;;;;;;;1.20;1.08;;;;;;;23.59;47.96;102771.56;5048525;28;20068;-70
2023/10/08 10:42:20;;;;;;;1.30;0.75;;;;;;;23.59;47.95;102770.72;5052335;28;20814;-69
2023/10/08 10:44:49;;;;;;;0.68;0.68;;;;;;;23.55;47.87;102762.22;5052134;28;20446;-69
2023/10/08 10:52:31;;;;;;;0.60;0.52;;;;;;;23.60;47.96;102780.38;5052162;28;20047;-71
2023/10/08 10:57:55;;;;;;;0.50;0.50;;;;;;;23.60;47.91;102736.00;5051716;28;20202;-69
2023/10/08 11:03:02;;;;;;;1.55;0.52;;;;;;;23.60;47.62;102721.88;5051403;28;20044;-69
2023/10/08 11:05:37;;;;;;;1.83;0.68;;;;;;;23.62;47.74;102710.06;5050305;28;20040;-70
2023/10/08 11:08:06;;;;;;;1.98;0.47;;;;;;;23.62;47.49;102701.25;5039679;28;20044;-70
2023/10/08 11:10:34;;;;;;;1.48;0.50;;;;;;;23.64;47.47;102686.81;5050387;28;20043;-70
2023/10/08 11:13:01;;;;;;;1.98;0.82;;;;;;;23.64;47.60;102668.19;5054403;28;20047;-71
2023/10/08 11:15:40;;;;;;;1.88;0.50;;;;;;;23.65;47.56;102661.88;5050298;28;20047;-70
2023/10/08 11:18:16;;;;;;;1.17;0.67;;;;;;;23.68;47.57;102658.06;5047464;28;20052;-71
2023/10/08 11:20:44;;;;;;;1.13;0.65;;;;;;;23.68;47.57;102680.16;5053840;28;20483;-71
2023/10/08 11:23:35;;;;;;;1.10;0.70;;;;;;;23.68;47.64;102696.13;5036747;28;20665;-70
2023/10/08 11:26:03;;;;;;;1.13;0.70;;;;;;;23.58;47.33;102683.97;5058311;28;20041;-70
2023/10/08 11:28:42;;;;;;;0.45;0.43;;;;;;;23.67;47.52;102694.47;5056864;28;20743;-70
2023/10/08 11:31:10;;;;;;;2.50;0.80;;;;;;;23.70;47.29;102691.50;5055411;28;20171;-71
2023/10/08 11:33:53;;;;;;;3.35;0.98;;;;;;;23.71;47.48;102684.34;5052636;28;20099;-71
2023/10/08 11:36:22;;;;;;;1.05;0.55;;;;;;;23.70;47.69;102680.88;5057133;28;20044;-71
2023/10/08 11:38:47;;;;;;;1.48;0.73;;;;;;;23.70;47.43;102691.50;5051211;28;20126;-71
2023/10/08 11:41:23;;;;;;;1.33;0.80;;;;;;;23.73;47.45;102695.66;5057894;28;20049;-71
2023/10/08 11:43:58;;;;;;;1.98;0.80;;;;;;;23.72;47.32;102694.00;5053727;28;20076;-70
2023/10/08 11:46:40;;;;;;;1.65;0.85;;;;;;;23.71;47.21;102685.19;5051696;28;20048;-71
2023/10/08 11:49:07;;;;;;;1.85;0.90;;;;;;;23.72;47.42;102676.22;5050472;28;20131;-71
2023/10/08 11:51:34;;;;;;;2.78;0.77;;;;;;;23.66;47.38;102668.88;5037267;28;20122;-69
2023/10/08 11:54:05;;;;;;;1.40;0.85;;;;;;;23.70;47.44;102667.56;5056790;28;20040;-69
2023/10/08 11:56:33;;;;;;;1.05;0.77;;;;;;;23.72;47.24;102673.56;5052620;28;20048;-70
2023/10/08 11:59:01;;;;;;;0.70;0.70;;;;;;;23.63;47.49;102649.75;5051703;28;20056;-71
2023/10/08 12:01:27;;;;;;;1.08;0.73;;;;;;;23.74;47.39;102676.88;5055004;28;20049;-69
2023/10/08 12:03:59;;;;;;;0.90;0.65;;;;;;;23.73;47.41;102680.53;5048385;28;20060;-70
2023/10/08 12:06:29;;;;;;;0.85;0.73;;;;;;;23.73;47.23;102672.56;5052561;28;20055;-70
2023/10/08 12:08:58;;;;;;;1.02;0.93;;;;;;;23.69;47.35;102652.56;5048508;28;20041;-70
2023/10/08 12:11:34;;;;;;;1.65;0.60;;;;;;;23.74;47.41;102663.59;5056662;28;20048;-70
2023/10/08 12:13:59;;;;;;;0.98;0.63;;;;;;;23.74;47.18;102665.41;5056738;28;20178;-70
2023/10/08 12:16:29;;;;;;;1.27;0.75;;;;;;;23.74;47.33;102679.53;5051972;28;20056;-69
2023/10/08 12:19:15;;;;;;;1.85;0.90;;;;;;;23.75;47.17;102678.56;5051295;28;20056;-70
2023/10/08 12:21:41;;;;;;;0.73;0.60;;;;;;;23.75;47.25;102683.03;5053373;28;20074;-70
2023/10/08 12:24:10;;;;;;;2.60;0.80;;;;;;;23.76;47.25;102688.19;5049597;28;20695;-69
2023/10/08 12:26:36;;;;;;;4.47;0.95;;;;;;;23.77;47.22;102689.03;5055287;28;20090;-70
2023/10/08 12:29:02;;;;;;;1.30;0.68;;;;;;;23.75;47.32;102678.56;5055398;28;21560;-70
2023/10/08 12:31:29;;;;;;;1.20;0.65;;;;;;;23.78;47.28;102690.69;5053184;28;20129;-71
2023/10/08 12:33:57;;;;;;;1.95;0.95;;;;;;;23.76;47.10;102682.88;5053249;28;20041;-70
2023/10/08 12:36:27;;;;;;;1.27;1.08;;;;;;;23.77;47.00;102686.38;5052829;28;20127;-70
2023/10/08 12:38:58;;;;;;;1.63;0.60;;;;;;;23.77;47.26;102697.00;5048492;28;20059;-70
2023/10/08 12:41:26;;;;;;;0.98;0.68;;;;;;;23.77;47.16;102697.00;5050869;28;20091;-70
2023/10/08 12:43:53;;;;;;;1.27;0.88;;;;;;;23.75;46.93;102691.03;5051646;28;20402;-70
2023/10/08 12:46:24;;;;;;;2.78;1.38;;;;;;;23.77;47.01;102687.19;5055648;28;20093;-70
2023/10/08 12:48:58;;;;;;;2.88;0.85;;;;;;;23.78;47.22;102685.38;5049130;28;20048;-70
2023/10/08 12:51:25;;;;;;;1.77;0.90;;;;;;;23.75;46.91;102678.56;5053958;28;20071;-70
2023/10/08 12:53:58;;;;;;;2.28;0.93;;;;;;;23.78;47.12;102686.19;5054515;28;20475;-71
2023/10/08 12:56:31;;;;;;;2.00;0.77;;;;;;;23.81;46.97;102693.84;5051277;28;20053;-70
2023/10/08 12:58:58;;;;;;;0.85;0.73;;;;;;;23.81;46.91;102682.38;5054531;28;20036;-70
2023/10/08 13:01:28;;;;;;;3.97;1.33;;;;;;;23.67;46.73;102646.59;5049380;28;20559;-70
2023/10/08 13:03:59;;;;;;;1.65;0.70;;;;;;;23.75;46.93;102651.94;5048800;28;20051;-70
2023/10/08 13:06:29;;;;;;;2.25;1.05;;;;;;;23.81;46.82;102650.47;5039716;28;20085;-70